Time;durP1;ratioP1;P1;durP2;ratioP2;P2;SDS_P1;SDS_P2;PMS_P1;PMS_P2;Temp;Humidity;BMP_temperature;BMP_pressure;BME280_temperature;BME280_humidity;BME280_pressure;Samples;Min_cycle;Max_cycle;Signal;HPM_P1;HPM_P2
2023/03/17 00:01:04;;;;;;;7.32;4.65;;;7.50;99.90;;;;;;5049878;28;20045;-70
2023/03/17 00:03:34;;;;;;;9.13;4.75;;;7.60;99.90;;;;;;5026819;28;20076;-71
2023/03/17 00:06:02;;;;;;;;;;;7.50;99.90;;;;;;5061102;28;20041;-70
2023/03/17 00:08:31;;;;;;;5.97;4.25;;;7.50;99.90;;;;;;5073026;28;19921;-70
2023/03/17 00:10:58;;;;;;;8.20;4.30;;;7.50;99.90;;;;;;5050374;28;20106;-70
2023/03/17 00:13:24;;;;;;;8.63;4.00;;;7.60;99.90;;;;;;5071647;28;20040;-70
2023/03/17 00:15:59;;;;;;;4.95;3.95;;;7.60;99.90;;;;;;5044464;28;20450;-70
2023/03/17 00:18:25;;;;;;;5.70;3.97;;;7.60;99.90;;;;;;5064225;28;20052;-70
2023/03/17 00:20:51;;;;;;;5.45;4.00;;;7.60;99.90;;;;;;5054395;28;20036;-70
2023/03/17 00:23:22;;;;;;;6.63;4.32;;;7.60;99.90;;;;;;5029098;28;20037;-70
2023/03/17 00:25:48;;;;;;;4.90;4.10;;;7.70;99.90;;;;;;5073636;28;20135;-72
2023/03/17 00:28:19;;;;;;;6.43;4.10;;;7.70;99.90;;;;;;5047047;28;20067;-71
2023/03/17 00:30:47;;;;;;;5.50;4.03;;;7.70;99.90;;;;;;5043009;28;20052;-71
2023/03/17 00:33:18;;;;;;;6.40;4.45;;;7.70;99.90;;;;;;5053178;28;20067;-71
2023/03/17 00:35:45;;;;;;;5.97;4.10;;;7.70;99.90;;;;;;5042230;28;20055;-71
2023/03/17 00:38:23;;;;;;;5.45;4.53;;;7.70;99.90;;;;;;5042624;28;20395;-71
2023/03/17 00:40:50;;;;;;;6.47;4.43;;;7.70;99.90;;;;;;5057994;28;20124;-71
2023/03/17 00:43:16;;;;;;;5.93;4.40;;;7.70;99.90;;;;;;5062225;28;20034;-71
2023/03/17 00:45:43;;;;;;;5.75;4.15;;;7.60;99.90;;;;;;5056110;28;20155;-71
2023/03/17 00:48:17;;;;;;;6.45;4.35;;;7.70;99.90;;;;;;5057991;28;20047;-71
2023/03/17 00:50:44;;;;;;;6.43;4.22;;;7.70;99.90;;;;;;5058748;28;20063;-71
2023/03/17 00:53:16;;;;;;;5.65;4.28;;;7.70;99.90;;;;;;5061284;28;20143;-71
2023/03/17 00:55:43;;;;;;;5.82;4.00;;;7.60;99.90;;;;;;5060251;28;20088;-72
2023/03/17 00:58:31;;;;;;;7.88;4.38;;;7.60;99.90;;;;;;5043663;28;20044;-71
2023/03/17 01:00:58;;;;;;;6.57;3.92;;;7.70;99.90;;;;;;5060068;28;20040;-71
2023/03/17 01:03:25;;;;;;;6.93;4.50;;;7.60;99.90;;;;;;5049242;28;20090;-71
2023/03/17 01:05:53;;;;;;;6.38;4.28;;;7.70;99.90;;;;;;5055428;28;20349;-71
2023/03/17 01:08:24;;;;;;;6.60;4.05;;;7.60;99.90;;;;;;5061832;28;20118;-71
2023/03/17 01:10:50;;;;;;;6.53;4.70;;;7.70;99.90;;;;;;5047003;28;20095;-71
2023/03/17 01:13:16;;;;;;;7.63;4.47;;;7.60;99.90;;;;;;5046749;28;20042;-71
2023/03/17 01:15:47;;;;;;;6.40;4.45;;;7.60;99.90;;;;;;5060277;28;20071;-71
2023/03/17 01:18:15;;;;;;;6.18;4.68;;;7.60;99.90;;;;;;5059558;28;20040;-71
2023/03/17 01:20:42;;;;;;;6.55;4.22;;;7.60;99.90;;;;;;5055155;28;20548;-72
2023/03/17 01:23:09;;;;;;;6.40;4.50;;;7.60;99.90;;;;;;5063404;28;20074;-72
2023/03/17 01:25:37;;;;;;;6.13;4.40;;;7.60;99.90;;;;;;5062532;28;20057;-70
2023/03/17 01:28:04;;;;;;;6.00;3.90;;;7.60;99.90;;;;;;5044507;28;20044;-72
2023/03/17 01:30:37;;;;;;;5.70;4.45;;;7.60;99.90;;;;;;5071007;28;20053;-72
2023/03/17 01:33:05;;;;;;;6.32;4.45;;;7.60;99.90;;;;;;5059899;28;20063;-72
2023/03/17 01:35:31;;;;;;;6.57;4.60;;;7.60;99.90;;;;;;5045056;28;20052;-70
2023/03/17 01:37:57;;;;;;;6.60;4.22;;;7.60;99.90;;;;;;5047874;28;20044;-71
2023/03/17 01:40:27;;;;;;;5.45;4.30;;;7.60;99.90;;;;;;5044825;28;20219;-71
2023/03/17 01:43:15;;;;;;;6.38;3.85;;;7.60;99.90;;;;;;5042219;28;20529;-70
2023/03/17 01:46:08;;;;;;;7.07;4.30;;;7.50;99.90;;;;;;5057667;28;20097;-70
2023/03/17 01:48:58;;;;;;;8.68;4.50;;;7.50;99.90;;;;;;5083818;28;20324;-71
2023/03/17 01:51:41;;;;;;;6.22;4.35;;;7.60;99.90;;;;;;5050447;28;20072;-70
2023/03/17 01:54:19;;;;;;;6.45;4.22;;;7.60;99.90;;;;;;5050777;28;20091;-70
2023/03/17 01:56:48;;;;;;;5.57;4.07;;;7.60;99.90;;;;;;5041543;28;20324;-71
2023/03/17 01:59:29;;;;;;;6.68;4.50;;;7.60;99.90;;;;;;5046679;28;20539;-70
2023/03/17 02:02:02;;;;;;;5.88;4.60;;;7.60;99.90;;;;;;5058729;28;20040;-71
2023/03/17 02:04:28;;;;;;;5.88;4.28;;;7.50;99.90;;;;;;5062204;28;20095;-70
2023/03/17 02:06:56;;;;;;;6.32;4.68;;;7.60;99.90;;;;;;5061920;28;20041;-70
2023/03/17 02:09:22;;;;;;;7.63;4.53;;;7.60;99.90;;;;;;5044285;28;20052;-71
2023/03/17 02:11:51;;;;;;;5.88;4.32;;;7.60;99.90;;;;;;5063181;28;20452;-70
2023/03/17 02:14:17;;;;;;;6.47;4.38;;;7.60;99.90;;;;;;5073488;28;20100;-71
2023/03/17 02:16:44;;;;;;;6.57;4.55;;;7.60;99.90;;;;;;5041493;28;20505;-69
2023/03/17 02:19:10;;;;;;;5.68;4.10;;;7.60;99.90;;;;;;5058280;28;20044;-69
2023/03/17 02:21:40;;;;;;;5.20;4.07;;;7.60;99.90;;;;;;5064689;28;20037;-68
2023/03/17 02:24:22;;;;;;;7.10;4.32;;;7.60;99.90;;;;;;5041546;28;20044;-69
2023/03/17 02:26:50;;;;;;;7.35;4.35;;;7.60;99.90;;;;;;5061603;28;20507;-69
2023/03/17 02:29:18;;;;;;;6.07;4.40;;;7.50;99.90;;;;;;5064887;28;20143;-69
2023/03/17 02:31:44;;;;;;;6.85;4.65;;;7.50;99.90;;;;;;5049207;28;20490;-69
2023/03/17 02:34:09;;;;;;;7.20;4.63;;;7.50;99.90;;;;;;5029727;28;20037;-69
2023/03/17 02:36:36;;;;;;;6.18;4.53;;;7.50;99.90;;;;;;5070573;28;20535;-68
2023/03/17 02:39:03;;;;;;;5.75;4.43;;;7.40;99.90;;;;;;5037402;28;20426;-69
2023/03/17 02:41:29;;;;;;;7.38;4.78;;;7.40;99.90;;;;;;5037997;28;20040;-68
2023/03/17 02:43:55;;;;;;;6.22;4.15;;;7.40;99.90;;;;;;5052676;28;20549;-68
2023/03/17 02:46:21;;;;;;;5.50;3.92;;;7.40;99.90;;;;;;5054164;28;20074;-69
2023/03/17 02:48:48;;;;;;;5.93;4.60;;;7.40;99.90;;;;;;5071011;28;20097;-69
2023/03/17 02:51:15;;;;;;;6.70;4.70;;;7.40;99.90;;;;;;5042655;28;20127;-68
2023/03/17 02:53:40;;;;;;;6.32;4.43;;;7.40;99.90;;;;;;5042516;28;20054;-69
2023/03/17 02:56:07;;;;;;;6.40;4.63;;;7.40;99.90;;;;;;5047230;28;20511;-68
2023/03/17 02:58:33;;;;;;;6.82;4.53;;;7.40;99.90;;;;;;5064125;28;20613;-69
2023/03/17 03:00:59;;;;;;;5.75;4.45;;;7.40;99.90;;;;;;5091608;27;20056;-68
2023/03/17 03:03:27;;;;;;;7.35;5.15;;;7.40;99.90;;;;;;5029099;28;20049;-68
2023/03/17 03:05:53;;;;;;;5.38;4.50;;;7.40;99.90;;;;;;5078520;28;20114;-69
2023/03/17 03:08:19;;;;;;;6.35;4.65;;;7.40;99.90;;;;;;5056163;28;20499;-69
2023/03/17 03:10:45;;;;;;;6.30;4.38;;;7.40;99.90;;;;;;5053500;28;20041;-69
2023/03/17 03:13:11;;;;;;;5.93;4.28;;;7.40;99.90;;;;;;5067271;28;20163;-69
2023/03/17 03:15:40;;;;;;;6.43;4.10;;;7.40;99.90;;;;;;5042259;28;20127;-69
2023/03/17 03:18:06;;;;;;;5.43;4.20;;;7.40;99.90;;;;;;5084992;28;20535;-69
2023/03/17 03:20:31;;;;;;;6.78;4.00;;;7.40;99.90;;;;;;5044178;28;20076;-69
2023/03/17 03:22:57;;;;;;;5.78;4.60;;;7.40;99.90;;;;;;5043689;28;20163;-68
2023/03/17 03:25:23;;;;;;;7.40;4.50;;;7.40;99.90;;;;;;5043704;28;20076;-71
2023/03/17 03:27:52;;;;;;;6.38;4.70;;;7.40;99.90;;;;;;5032504;28;20041;-71
2023/03/17 03:30:18;;;;;;;5.15;4.07;;;7.40;99.90;;;;;;5068288;28;20534;-71
2023/03/17 03:32:43;;;;;;;5.88;4.70;;;7.40;99.90;;;;;;5046396;28;20056;-70
2023/03/17 03:35:10;;;;;;;6.38;4.35;;;7.40;99.90;;;;;;5069355;28;20044;-70
2023/03/17 03:37:36;;;;;;;7.47;4.53;;;7.40;99.90;;;;;;5061964;28;20049;-70
2023/03/17 03:40:03;;;;;;;6.32;4.32;;;7.40;99.90;;;;;;5029787;28;20037;-69
2023/03/17 03:42:28;;;;;;;5.82;4.05;;;7.40;99.90;;;;;;5045829;28;20045;-70
2023/03/17 03:44:57;;;;;;;5.63;4.20;;;7.40;99.90;;;;;;5044906;28;20047;-70
2023/03/17 03:47:23;;;;;;;5.32;4.18;;;7.40;99.90;;;;;;5031850;28;20045;-72
2023/03/17 03:49:51;;;;;;;5.78;4.45;;;7.40;99.90;;;;;;5091217;28;20572;-72
2023/03/17 03:52:17;;;;;;;6.28;4.60;;;7.40;99.90;;;;;;5018355;28;20551;-70
2023/03/17 03:54:43;;;;;;;6.65;4.32;;;7.40;99.90;;;;;;5066085;28;20367;-70
2023/03/17 03:57:09;;;;;;;5.90;4.32;;;7.40;99.90;;;;;;5059926;28;20091;-70
2023/03/17 03:59:35;;;;;;;7.82;4.78;;;7.40;99.90;;;;;;5038780;28;20049;-71
2023/03/17 04:02:01;;;;;;;5.57;4.43;;;7.40;99.90;;;;;;5039045;28;20041;-71
2023/03/17 04:04:26;;;;;;;5.75;4.05;;;7.40;99.90;;;;;;5037231;28;20458;-71
2023/03/17 04:06:52;;;;;;;7.10;4.55;;;7.40;99.90;;;;;;5056929;28;20040;-71
2023/03/17 04:09:18;;;;;;;6.95;4.55;;;7.40;99.90;;;;;;5066684;28;20045;-71
2023/03/17 04:11:44;;;;;;;5.90;4.13;;;7.40;99.90;;;;;;5042320;28;20101;-71
2023/03/17 04:14:11;;;;;;;8.43;5.03;;;7.40;99.90;;;;;;5056553;28;20048;-71
2023/03/17 04:16:37;;;;;;;6.07;4.53;;;7.40;99.90;;;;;;5066851;28;20086;-71
2023/03/17 04:19:02;;;;;;;5.97;4.72;;;7.40;99.90;;;;;;5090213;28;20032;-71
2023/03/17 04:21:28;;;;;;;7.28;4.88;;;7.40;99.90;;;;;;5086258;28;20040;-71
2023/03/17 04:23:57;;;;;;;7.30;4.35;;;7.40;99.90;;;;;;5070918;28;20040;-72
2023/03/17 04:26:23;;;;;;;5.57;4.03;;;7.40;99.90;;;;;;5054633;28;20044;-71
2023/03/17 04:28:49;;;;;;;6.68;4.72;;;7.40;99.90;;;;;;5047124;28;20053;-72
2023/03/17 04:31:15;;;;;;;5.68;4.30;;;7.40;99.90;;;;;;5073675;28;20048;-71
2023/03/17 04:33:41;;;;;;;6.35;4.78;;;7.40;99.90;;;;;;5091949;28;20051;-71
2023/03/17 04:36:12;;;;;;;6.72;4.70;;;7.40;99.90;;;;;;5035294;28;20059;-72
2023/03/17 04:38:38;;;;;;;5.72;4.00;;;7.40;99.90;;;;;;5047588;28;20105;-72
2023/03/17 04:41:03;;;;;;;6.40;4.53;;;7.40;99.90;;;;;;5040572;28;20495;-72
2023/03/17 04:43:29;;;;;;;6.40;4.40;;;7.40;99.90;;;;;;5060073;28;20053;-72
2023/03/17 04:45:55;;;;;;;7.07;4.60;;;7.40;99.90;;;;;;5024748;28;20411;-72
2023/03/17 04:48:21;;;;;;;6.78;4.32;;;7.40;99.90;;;;;;5053642;28;20072;-72
2023/03/17 04:50:47;;;;;;;6.38;4.43;;;7.40;99.90;;;;;;5046980;28;20109;-72
2023/03/17 04:53:13;;;;;;;6.18;4.20;;;7.40;99.90;;;;;;5045075;28;20563;-72
2023/03/17 04:55:39;;;;;;;6.00;4.38;;;7.40;99.90;;;;;;5017977;28;20100;-70
2023/03/17 04:58:05;;;;;;;4.90;3.78;;;7.50;99.90;;;;;;5089617;28;20066;-72
2023/03/17 05:00:37;;;;;;;6.53;4.63;;;7.40;99.90;;;;;;5066118;28;20498;-71
2023/03/17 05:03:05;;;;;;;5.85;4.22;;;7.40;99.90;;;;;;5033462;28;20040;-69
2023/03/17 05:05:31;;;;;;;6.97;4.70;;;7.40;99.90;;;;;;5025640;28;20056;-72
2023/03/17 05:07:56;;;;;;;8.00;4.07;;;7.40;99.90;;;;;;5041420;28;20048;-70
2023/03/17 05:10:22;;;;;;;6.45;4.20;;;7.40;99.90;;;;;;5055345;28;20071;-71
2023/03/17 05:12:48;;;;;;;6.10;4.32;;;7.50;99.90;;;;;;5057059;28;20037;-71
2023/03/17 05:15:14;;;;;;;6.25;4.50;;;7.50;99.90;;;;;;5046593;28;20048;-70
2023/03/17 05:17:40;;;;;;;6.45;4.57;;;7.40;99.90;;;;;;5049990;28;20143;-70
2023/03/17 05:20:07;;;;;;;7.60;4.13;;;7.50;99.90;;;;;;5045496;28;20100;-71
2023/03/17 05:22:33;;;;;;;7.15;4.13;;;7.50;99.90;;;;;;5048189;28;20040;-70
2023/03/17 05:24:59;;;;;;;7.65;4.35;;;7.50;99.90;;;;;;5014747;28;20044;-71
2023/03/17 05:27:25;;;;;;;5.20;4.10;;;7.50;99.90;;;;;;5045878;28;20049;-70
2023/03/17 05:29:51;;;;;;;6.55;4.10;;;7.50;99.90;;;;;;5056604;28;20044;-71
2023/03/17 05:32:17;;;;;;;7.10;4.60;;;7.50;99.90;;;;;;5043969;28;20114;-70
2023/03/17 05:34:43;;;;;;;5.55;4.00;;;7.50;99.90;;;;;;5057123;28;20576;-70
2023/03/17 05:37:10;;;;;;;8.15;5.10;;;7.60;99.90;;;;;;5046356;28;20459;-70
2023/03/17 05:39:36;;;;;;;7.22;4.88;;;7.60;99.90;;;;;;5065324;28;20140;-70
2023/03/17 05:42:01;;;;;;;7.60;4.22;;;7.60;99.90;;;;;;5049829;28;20120;-71
2023/03/17 05:44:27;;;;;;;7.38;4.57;;;7.50;99.90;;;;;;5059867;28;20036;-70
2023/03/17 05:46:54;;;;;;;6.65;3.95;;;7.50;99.90;;;;;;5055409;28;20078;-72
2023/03/17 05:49:20;;;;;;;7.97;4.85;;;7.50;99.90;;;;;;5056932;28;20051;-72
2023/03/17 05:51:46;;;;;;;6.13;4.43;;;7.60;99.90;;;;;;5054245;28;20052;-70
2023/03/17 05:54:12;;;;;;;6.50;4.57;;;7.60;99.90;;;;;;5027143;28;20442;-70
2023/03/17 05:56:39;;;;;;;5.85;4.38;;;7.60;99.90;;;;;;5044028;28;20102;-70
2023/03/17 05:59:04;;;;;;;6.55;4.30;;;7.60;99.90;;;;;;5064801;28;20131;-71
2023/03/17 06:01:31;;;;;;;7.53;4.85;;;7.60;99.90;;;;;;5031207;28;20152;-70
2023/03/17 06:03:57;;;;;;;6.35;4.75;;;7.60;99.90;;;;;;5063650;28;20148;-71
2023/03/17 06:06:23;;;;;;;6.18;4.57;;;7.60;99.90;;;;;;5028869;28;20120;-70
2023/03/17 06:08:49;;;;;;;6.40;4.80;;;7.60;99.90;;;;;;5065795;28;20453;-70
2023/03/17 06:11:14;;;;;;;7.60;4.47;;;7.60;99.90;;;;;;5061694;28;20056;-70
2023/03/17 06:13:41;;;;;;;6.78;5.13;;;7.60;99.90;;;;;;5061823;28;20080;-70
2023/03/17 06:16:07;;;;;;;6.30;4.75;;;7.70;99.90;;;;;;5065223;28;20181;-71
2023/03/17 06:18:32;;;;;;;6.60;5.18;;;7.70;99.90;;;;;;5070578;28;20295;-71
2023/03/17 06:20:58;;;;;;;7.00;4.45;;;7.80;99.90;;;;;;5028876;28;20051;-70
2023/03/17 06:23:24;;;;;;;7.28;4.90;;;7.80;99.90;;;;;;5063382;28;20044;-70
2023/03/17 06:25:50;;;;;;;8.52;4.40;;;7.80;99.90;;;;;;5053803;28;20045;-70
2023/03/17 06:28:16;;;;;;;5.95;4.53;;;7.90;99.90;;;;;;5063324;28;20074;-70
2023/03/17 06:30:42;;;;;;;6.70;4.75;;;7.90;99.90;;;;;;5031880;28;20403;-70
2023/03/17 06:33:07;;;;;;;8.15;4.32;;;7.90;99.90;;;;;;5062093;28;20044;-70
2023/03/17 06:35:33;;;;;;;6.57;4.80;;;7.90;99.90;;;;;;5028790;28;20698;-70
2023/03/17 06:37:59;;;;;;;6.95;4.72;;;7.90;99.90;;;;;;5049635;28;20128;-70
2023/03/17 06:40:25;;;;;;;6.28;4.63;;;7.90;99.90;;;;;;5048485;28;20033;-70
2023/03/17 06:42:52;;;;;;;8.70;5.00;;;8.00;99.90;;;;;;5028948;28;20059;-70
2023/03/17 06:45:18;;;;;;;8.20;4.55;;;8.00;99.90;;;;;;5027249;28;20041;-72
2023/03/17 06:47:43;;;;;;;6.22;4.28;;;8.00;99.90;;;;;;5027352;28;20107;-70
2023/03/17 06:50:10;;;;;;;6.03;4.53;;;8.00;99.90;;;;;;5043469;28;20049;-70
2023/03/17 06:52:38;;;;;;;8.07;5.22;;;8.10;99.90;;;;;;5041523;28;20589;-70
2023/03/17 06:55:05;;;;;;;7.45;4.65;;;8.10;99.90;;;;;;5041126;28;20253;-70
2023/03/17 06:57:31;;;;;;;6.93;4.75;;;8.10;99.90;;;;;;5075098;28;20048;-70
2023/03/17 06:59:56;;;;;;;6.47;4.72;;;8.10;99.90;;;;;;5045133;28;20408;-70
2023/03/17 07:02:23;;;;;;;6.38;4.30;;;8.10;99.90;;;;;;5064395;28;20039;-71
2023/03/17 07:04:49;;;;;;;7.47;4.47;;;8.10;99.90;;;;;;5081330;28;20393;-71
2023/03/17 07:07:15;;;;;;;6.15;4.40;;;8.10;99.90;;;;;;5040291;28;20305;-71
2023/03/17 07:09:41;;;;;;;6.03;4.47;;;8.20;99.90;;;;;;5043957;28;20050;-72
2023/03/17 07:12:07;;;;;;;6.95;4.57;;;8.20;99.90;;;;;;5032095;28;20167;-70
2023/03/17 07:14:35;;;;;;;6.78;4.10;;;8.20;99.90;;;;;;5048430;28;20152;-70
2023/03/17 07:17:02;;;;;;;8.77;4.93;;;8.20;99.90;;;;;;5051519;28;20375;-71
2023/03/17 07:19:29;;;;;;;6.93;4.28;;;8.30;99.90;;;;;;5100845;27;20048;-71
2023/03/17 07:21:55;;;;;;;7.05;4.40;;;8.30;99.90;;;;;;5037722;28;20491;-71
2023/03/17 07:24:21;;;;;;;6.93;4.63;;;8.30;99.90;;;;;;5065256;28;20120;-71
2023/03/17 07:26:48;;;;;;;8.80;4.53;;;8.40;99.90;;;;;;5059271;28;20498;-70
2023/03/17 07:29:14;;;;;;;5.93;4.32;;;8.40;99.90;;;;;;5041926;28;20048;-70
2023/03/17 07:31:39;;;;;;;6.82;4.75;;;8.50;99.90;;;;;;5061378;28;20131;-70
2023/03/17 07:34:06;;;;;;;6.47;4.50;;;8.60;99.90;;;;;;5051996;28;21813;-71
2023/03/17 07:36:32;;;;;;;7.40;4.75;;;8.70;99.90;;;;;;5037594;28;20043;-70
2023/03/17 07:39:02;;;;;;;6.22;4.13;;;8.80;99.90;;;;;;5047959;28;20047;-70
2023/03/17 07:41:28;;;;;;;8.98;5.50;;;8.80;99.90;;;;;;5053935;28;20096;-70
2023/03/17 07:43:56;;;;;;;5.72;4.38;;;8.90;99.90;;;;;;5101095;27;20067;-71
2023/03/17 07:46:22;;;;;;;9.52;5.60;;;8.90;99.90;;;;;;5046103;28;20040;-71
2023/03/17 07:48:48;;;;;;;7.25;4.60;;;9.00;99.90;;;;;;5037415;28;20410;-72
2023/03/17 07:51:21;;;;;;;6.18;4.85;;;9.00;99.90;;;;;;5052240;28;20131;-71
2023/03/17 07:53:49;;;;;;;8.23;5.60;;;9.00;99.90;;;;;;5082471;28;20503;-73
2023/03/17 07:56:16;;;;;;;8.10;4.45;;;9.10;99.90;;;;;;5059964;28;20584;-74
2023/03/17 07:58:42;;;;;;;7.78;4.63;;;9.10;99.90;;;;;;5066035;28;20097;-73
2023/03/17 08:01:08;;;;;;;7.40;4.60;;;9.10;99.90;;;;;;5064570;28;20127;-74
2023/03/17 08:03:35;;;;;;;9.27;4.88;;;9.20;99.90;;;;;;5050623;28;20380;-74
2023/03/17 08:06:02;;;;;;;8.73;4.65;;;9.30;99.90;;;;;;5050116;28;20043;-74
2023/03/17 08:08:28;;;;;;;5.25;4.05;;;9.40;99.90;;;;;;5058857;28;20100;-74
2023/03/17 08:11:02;;;;;;;6.97;4.53;;;9.50;99.90;;;;;;5052014;28;20517;-74
2023/03/17 08:13:29;;;;;;;7.47;4.85;;;9.60;99.90;;;;;;5069004;28;20048;-74
2023/03/17 08:15:55;;;;;;;6.63;4.90;;;9.70;99.90;;;;;;5047173;28;20043;-73
2023/03/17 08:18:21;;;;;;;5.95;4.13;;;9.80;99.90;;;;;;5055559;28;20056;-73
2023/03/17 08:20:48;;;;;;;5.90;4.30;;;9.90;99.90;;;;;;5077909;28;20097;-73
2023/03/17 08:23:14;;;;;;;7.57;4.85;;;9.90;99.90;;;;;;5064523;28;20077;-73
2023/03/17 08:25:40;;;;;;;6.70;4.55;;;9.90;99.90;;;;;;5064351;28;20469;-73
2023/03/17 08:28:05;;;;;;;6.32;4.47;;;10.00;99.90;;;;;;5063312;28;20101;-73
2023/03/17 08:30:31;;;;;;;7.78;5.65;;;10.00;99.90;;;;;;5056937;28;20350;-73
2023/03/17 08:32:57;;;;;;;5.75;4.45;;;10.10;99.70;;;;;;5046524;28;20060;-73
2023/03/17 08:35:23;;;;;;;6.80;4.57;;;10.20;99.30;;;;;;5051871;28;20401;-73
2023/03/17 08:37:50;;;;;;;6.45;4.40;;;10.30;99.10;;;;;;5052972;28;20048;-73
2023/03/17 08:40:18;;;;;;;6.78;4.82;;;10.30;98.30;;;;;;5075410;28;20056;-72
2023/03/17 08:42:46;;;;;;;6.13;4.30;;;10.40;97.70;;;;;;5042935;28;20083;-73
2023/03/17 08:45:13;;;;;;;6.32;4.55;;;10.40;97.50;;;;;;5043189;28;20051;-73
2023/03/17 08:47:39;;;;;;;6.97;4.60;;;10.40;97.90;;;;;;5055894;28;20051;-73
2023/03/17 08:50:10;;;;;;;6.60;4.50;;;10.40;97.60;;;;;;5056191;28;20058;-75
2023/03/17 08:52:36;;;;;;;7.82;4.60;;;10.50;97.80;;;;;;5057210;28;20738;-75
2023/03/17 08:55:02;;;;;;;7.13;4.47;;;10.60;97.90;;;;;;5033368;28;20044;-74
2023/03/17 08:57:28;;;;;;;7.60;4.68;;;10.80;97.90;;;;;;5046454;28;20608;-74
2023/03/17 08:59:54;;;;;;;6.63;5.00;;;10.90;97.40;;;;;;5038229;28;20044;-75
2023/03/17 09:02:21;;;;;;;7.72;4.97;;;11.10;97.50;;;;;;5070462;28;20032;-75
2023/03/17 09:04:47;;;;;;;7.50;5.10;;;11.20;96.70;;;;;;5054053;28;20339;-74
2023/03/17 09:07:12;;;;;;;9.38;4.97;;;11.30;95.90;;;;;;5019965;28;20036;-74
2023/03/17 09:09:38;;;;;;;8.88;4.70;;;11.40;95.70;;;;;;5068923;28;20055;-73
2023/03/17 09:12:05;;;;;;;8.35;5.15;;;11.50;95.50;;;;;;5024502;28;20143;-73
2023/03/17 09:14:34;;;;;;;6.95;5.03;;;11.50;95.10;;;;;;5068640;28;20043;-73
2023/03/17 09:17:00;;;;;;;5.93;4.43;;;11.40;95.20;;;;;;5055693;28;20495;-73
2023/03/17 09:19:26;;;;;;;6.38;4.78;;;11.40;95.70;;;;;;5033053;28;20114;-73
2023/03/17 09:21:52;;;;;;;6.13;4.80;;;11.50;95.70;;;;;;5020345;28;20119;-73
2023/03/17 09:24:20;;;;;;;6.93;4.72;;;11.60;95.80;;;;;;5055473;28;20044;-74
2023/03/17 09:26:46;;;;;;;7.07;4.70;;;11.70;95.80;;;;;;5073918;28;20043;-75
2023/03/17 09:29:11;;;;;;;7.38;4.88;;;11.70;95.20;;;;;;5049688;28;20055;-74
2023/03/17 09:31:37;;;;;;;7.28;4.72;;;11.70;94.90;;;;;;5043816;28;20052;-74
2023/03/17 09:34:04;;;;;;;8.10;4.65;;;11.80;94.70;;;;;;5039276;28;20110;-74
2023/03/17 09:36:33;;;;;;;6.43;4.72;;;11.80;94.80;;;;;;5037797;28;20301;-74
2023/03/17 09:39:00;;;;;;;5.80;4.90;;;11.90;95.00;;;;;;5040682;28;20048;-74
2023/03/17 09:41:47;;;;;;;7.18;4.70;;;11.90;95.40;;;;;;5051493;28;20032;-74
2023/03/17 09:44:31;;;;;;;7.53;4.80;;;12.10;95.40;;;;;;5092141;28;20044;-73
2023/03/17 09:47:16;;;;;;;7.15;4.32;;;12.30;94.70;;;;;;5063907;28;20052;-74
2023/03/17 09:49:52;;;;;;;7.78;4.85;;;12.50;94.50;;;;;;5037519;28;20053;-74
2023/03/17 09:52:26;;;;;;;7.82;5.18;;;12.80;93.20;;;;;;5039011;28;20101;-73
2023/03/17 09:54:53;;;;;;;7.50;4.78;;;12.90;93.70;;;;;;5073409;28;20514;-73
2023/03/17 09:57:39;;;;;;;6.00;4.45;;;13.10;93.30;;;;;;5053880;28;20040;-73
2023/03/17 10:00:17;;;;;;;8.25;4.40;;;13.30;93.60;;;;;;5031578;28;20088;-71
2023/03/17 10:02:49;;;;;;;6.75;4.60;;;13.50;93.30;;;;;;5061079;28;20177;-72
2023/03/17 10:05:20;;;;;;;6.85;4.25;;;13.70;93.00;;;;;;5065836;28;20056;-71
2023/03/17 10:08:24;;;;;;;7.05;4.50;;;13.90;91.80;;;;;;5041423;28;20044;-71
2023/03/17 10:11:09;;;;;;;6.97;5.00;;;13.90;91.10;;;;;;5036334;28;20048;-71
2023/03/17 10:13:53;;;;;;;6.68;4.70;;;14.00;90.80;;;;;;5080928;28;20181;-71
2023/03/17 10:16:48;;;;;;;6.63;4.80;;;14.10;91.10;;;;;;5071729;28;20049;-71
2023/03/17 10:19:25;;;;;;;7.50;5.03;;;14.20;91.30;;;;;;5041037;28;20301;-71
2023/03/17 10:22:12;;;;;;;8.90;4.88;;;14.40;90.30;;;;;;5058698;28;20127;-71
2023/03/17 10:24:45;;;;;;;14.80;4.47;;;14.60;89.10;;;;;;5030364;28;20048;-72
2023/03/17 10:27:18;;;;;;;6.53;4.30;;;14.70;90.00;;;;;;5060498;28;20035;-72
2023/03/17 10:29:44;;;;;;;7.72;4.53;;;14.80;88.50;;;;;;5059125;28;20478;-71
2023/03/17 10:32:12;;;;;;;9.48;4.78;;;14.90;87.60;;;;;;5059328;28;20437;-72
2023/03/17 10:34:40;;;;;;;7.78;5.00;;;14.90;86.60;;;;;;5031037;28;20135;-72
2023/03/17 10:37:19;;;;;;;7.93;4.70;;;15.00;87.50;;;;;;5055951;28;20151;-72
2023/03/17 10:39:50;;;;;;;9.25;4.93;;;15.10;86.50;;;;;;5083658;28;20056;-72
2023/03/17 10:42:25;;;;;;;8.20;4.82;;;15.20;86.50;;;;;;5059562;28;20675;-72
2023/03/17 10:44:58;;;;;;;7.32;4.65;;;15.30;85.80;;;;;;5085182;28;20233;-71
2023/03/17 10:47:38;;;;;;;8.38;4.90;;;15.30;84.00;;;;;;5072560;28;20387;-73
2023/03/17 10:50:24;;;;;;;;;;;15.40;85.40;;;;;;5073635;28;20084;-74
2023/03/17 10:53:07;;;;;;;6.25;4.53;;;15.40;85.40;;;;;;5043970;28;20322;-74
2023/03/17 10:55:41;;;;;;;7.32;5.20;;;15.50;85.50;;;;;;5053449;28;20052;-74
2023/03/17 10:58:22;;;;;;;6.80;4.75;;;15.60;86.40;;;;;;5034699;28;20068;-74
2023/03/17 11:00:56;;;;;;;7.55;4.75;;;15.60;83.60;;;;;;5083625;28;20040;-74
2023/03/17 11:03:27;;;;;;;6.20;4.60;;;15.60;84.10;;;;;;5032519;28;20135;-74
2023/03/17 11:06:07;;;;;;;8.10;5.10;;;15.70;84.20;;;;;;5040325;28;20053;-73
2023/03/17 11:08:40;;;;;;;8.20;5.63;;;15.80;85.70;;;;;;5034563;28;20045;-75
2023/03/17 11:11:23;;;;;;;12.98;5.35;;;15.90;85.10;;;;;;5052901;28;20040;-74
2023/03/17 11:13:49;;;;;;;7.10;4.43;;;16.00;84.90;;;;;;5031575;28;20052;-75
2023/03/17 11:16:23;;;;;;;6.10;4.60;;;16.10;83.70;;;;;;5036404;28;20049;-74
2023/03/17 11:18:56;;;;;;;6.68;4.93;;;16.20;84.00;;;;;;5032273;28;20517;-74
2023/03/17 11:21:59;;;;;;;9.57;5.00;;;16.30;81.80;;;;;;5089110;27;20048;-74
2023/03/17 11:24:40;;;;;;;7.28;4.70;;;16.30;82.30;;;;;;5054625;28;20059;-74
2023/03/17 11:27:29;;;;;;;5.88;4.80;;;16.30;82.80;;;;;;5039427;28;20047;-74
2023/03/17 11:30:34;;;;;;;7.55;5.15;;;16.40;81.70;;;;;;5037514;28;20053;-74
2023/03/17 11:32:59;;;;;;;6.75;5.00;;;16.40;82.70;;;;;;5041225;28;20056;-74
2023/03/17 11:35:28;;;;;;;6.55;5.20;;;16.50;83.40;;;;;;5065793;28;20059;-75
2023/03/17 11:37:57;;;;;;;7.38;5.53;;;16.60;85.20;;;;;;5047889;28;20184;-75
2023/03/17 11:40:30;;;;;;;7.55;4.97;;;16.70;84.20;;;;;;5040200;28;20735;-75
2023/03/17 11:43:26;;;;;;;9.32;5.82;;;16.80;83.40;;;;;;5048368;28;20389;-75
2023/03/17 11:45:56;;;;;;;9.13;5.85;;;16.90;83.10;;;;;;5049378;28;20048;-74
2023/03/17 11:48:31;;;;;;;7.20;5.72;;;17.00;81.60;;;;;;5037092;28;20049;-74
2023/03/17 11:51:30;;;;;;;6.75;5.28;;;17.00;82.00;;;;;;5050554;28;20534;-74
2023/03/17 11:54:23;;;;;;;7.25;5.43;;;17.00;81.00;;;;;;5042077;28;20072;-75
2023/03/17 11:57:03;;;;;;;7.13;5.22;;;17.00;80.30;;;;;;5027425;28;20538;-74
2023/03/17 11:59:58;;;;;;;;;;;17.00;82.50;;;;;;5048146;28;20040;-74
2023/03/17 12:02:42;;;;;;;6.95;5.88;;;17.00;81.40;;;;;;5036415;28;20302;-75
2023/03/17 12:05:23;;;;;;;7.63;5.72;;;17.10;81.10;;;;;;5041114;28;20048;-74
2023/03/17 12:08:13;;;;;;;7.57;5.90;;;17.00;80.00;;;;;;5052694;28;20088;-74
2023/03/17 12:10:53;;;;;;;10.38;6.10;;;16.80;80.70;;;;;;5056505;28;20039;-74
2023/03/17 12:13:42;;;;;;;7.47;5.50;;;16.70;80.70;;;;;;5047341;28;20048;-74
2023/03/17 12:16:24;;;;;;;7.93;5.73;;;16.50;83.00;;;;;;5055224;28;20220;-74
2023/03/17 12:19:24;;;;;;;7.80;5.75;;;16.40;83.60;;;;;;5072826;28;20044;-74
2023/03/17 12:22:01;;;;;;;8.88;5.93;;;16.40;85.50;;;;;;5033233;28;20041;-74
2023/03/17 12:24:33;;;;;;;8.85;6.10;;;16.40;83.70;;;;;;5050906;28;20049;-75
2023/03/17 12:27:10;;;;;;;7.00;5.95;;;16.50;82.70;;;;;;5074802;28;20040;-75
2023/03/17 12:29:42;;;;;;;9.40;6.07;;;16.60;83.10;;;;;;5038278;28;20060;-75
2023/03/17 12:32:20;;;;;;;7.70;6.30;;;16.60;82.90;;;;;;5045508;28;20309;-76
2023/03/17 12:34:57;;;;;;;8.68;6.10;;;16.50;82.20;;;;;;5041636;28;20407;-75
2023/03/17 12:37:27;;;;;;;7.82;6.13;;;16.40;83.00;;;;;;5041370;28;20560;-75
2023/03/17 12:39:57;;;;;;;12.37;6.50;;;16.20;83.30;;;;;;5051009;28;20067;-74
2023/03/17 12:42:55;;;;;;;9.68;6.25;;;16.20;84.90;;;;;;5041176;28;20040;-75
2023/03/17 12:45:43;;;;;;;7.10;6.07;;;16.10;88.10;;;;;;5088005;28;20053;-75
2023/03/17 12:48:09;;;;;;;7.88;6.15;;;16.10;88.00;;;;;;5086841;28;20056;-74
2023/03/17 12:51:05;;;;;;;9.23;6.72;;;16.00;86.80;;;;;;5048584;28;20064;-75
2023/03/17 12:53:35;;;;;;;8.10;6.05;;;16.00;86.00;;;;;;5038335;28;20056;-74
2023/03/17 12:56:21;;;;;;;7.22;6.47;;;15.90;87.20;;;;;;5061807;28;20052;-74
2023/03/17 12:58:51;;;;;;;8.52;6.25;;;15.80;87.60;;;;;;5031982;28;20429;-74
2023/03/17 13:01:36;;;;;;;7.78;6.70;;;15.80;87.70;;;;;;5035550;28;20407;-74
2023/03/17 13:04:14;;;;;;;8.57;6.82;;;15.80;88.10;;;;;;5050884;28;20044;-75
2023/03/17 13:06:43;;;;;;;7.80;6.10;;;15.80;89.50;;;;;;5048382;28;20041;-74
2023/03/17 13:09:37;;;;;;;9.60;6.30;;;16.00;88.60;;;;;;5036488;28;20041;-75
2023/03/17 13:12:05;;;;;;;8.65;6.80;;;16.00;87.20;;;;;;5036559;28;20077;-75